createdAt,value
2022-12-09T00:00:23.571Z,15.15
2022-12-09T00:02:51.426Z,15.60
2022-12-09T00:05:19.487Z,15.90
2022-12-09T00:07:47.583Z,15.25
2022-12-09T00:10:15.808Z,14.73
2022-12-09T00:12:45.058Z,15.55
2022-12-09T00:15:13.039Z,15.93
2022-12-09T00:17:41.069Z,16.15
2022-12-09T00:20:10.873Z,15.65
2022-12-09T00:22:39.357Z,16.00
2022-12-09T00:25:08.216Z,16.02
2022-12-09T00:27:36.210Z,17.02
2022-12-09T00:30:06.987Z,17.23
2022-12-09T00:32:35.155Z,16.77
2022-12-09T00:35:04.474Z,16.88
2022-12-09T00:37:32.400Z,17.77
2022-12-09T00:40:00.473Z,16.42
2022-12-09T00:42:28.515Z,17.48
2022-12-09T00:44:56.349Z,18.45
2022-12-09T00:47:25.513Z,17.23
2022-12-09T00:49:53.624Z,19.75
2022-12-09T00:52:21.749Z,18.02
2022-12-09T00:54:49.543Z,19.40
2022-12-09T00:57:18.047Z,19.52
2022-12-09T00:59:46.089Z,20.98
2022-12-09T01:02:13.990Z,21.05
2022-12-09T01:04:43.400Z,19.98
2022-12-09T01:07:11.755Z,21.80
2022-12-09T01:09:39.608Z,21.75
2022-12-09T01:12:07.434Z,21.65
2022-12-09T01:14:35.212Z,20.95
2022-12-09T01:17:03.240Z,21.60
2022-12-09T01:19:31.340Z,21.63
2022-12-09T01:22:00.629Z,22.55
2022-12-09T01:24:28.643Z,21.30
2022-12-09T01:26:56.464Z,21.80
2022-12-09T01:29:24.325Z,24.42
2022-12-09T01:31:52.459Z,20.10
2022-12-09T01:34:20.305Z,20.80
2022-12-09T01:36:48.576Z,22.02
2022-12-09T01:39:17.934Z,22.42
2022-12-09T01:41:45.876Z,21.63
2022-12-09T01:44:18.193Z,23.13
2022-12-09T01:46:47.156Z,22.58
2022-12-09T01:49:21.534Z,23.25
2022-12-09T01:51:57.083Z,23.63
2022-12-09T01:54:26.718Z,21.95
2022-12-09T01:56:56.292Z,22.02
2022-12-09T01:59:25.597Z,22.23
2022-12-09T02:01:59.662Z,22.17
2022-12-09T02:04:30.248Z,25.52
2022-12-09T02:06:59.206Z,24.05
2022-12-09T02:09:28.421Z,20.67
2022-12-09T02:12:07.747Z,20.45
2022-12-09T02:14:41.421Z,22.00
2022-12-09T02:17:25.180Z,20.83
2022-12-09T02:20:01.888Z,21.55
2022-12-09T02:22:35.551Z,20.88
2022-12-09T02:25:19.866Z,19.63
2022-12-09T02:27:57.193Z,19.52
2022-12-09T02:30:32.264Z,20.05
2022-12-09T02:33:27.513Z,20.15
2022-12-09T02:36:03.963Z,18.80
2022-12-09T02:38:34.669Z,20.08
2022-12-09T02:41:07.559Z,20.58
2022-12-09T02:43:45.002Z,21.02
2022-12-09T02:46:18.265Z,22.95
2022-12-09T02:48:52.351Z,21.10
2022-12-09T02:51:23.473Z,21.58
2022-12-09T02:53:55.033Z,20.73
2022-12-09T02:56:24.312Z,22.98
2022-12-09T02:58:52.311Z,21.58
2022-12-09T03:01:23.115Z,21.67
2022-12-09T03:03:54.592Z,21.30
2022-12-09T03:06:32.124Z,21.10
2022-12-09T03:09:05.415Z,21.33
2022-12-09T03:11:34.376Z,21.00
2022-12-09T03:14:09.752Z,22.67
2022-12-09T03:16:41.700Z,21.50
2022-12-09T03:21:44.799Z,21.48
2022-12-09T03:24:15.516Z,22.25
2022-12-09T03:26:45.087Z,21.90
2022-12-09T03:29:18.333Z,22.73
2022-12-09T03:31:48.584Z,23.45
2022-12-09T03:34:19.394Z,22.13
2022-12-09T03:36:52.043Z,21.33
2022-12-09T03:39:25.651Z,20.25
2022-12-09T03:41:57.380Z,20.92
2022-12-09T03:44:31.296Z,19.90
2022-12-09T03:47:00.351Z,19.33
2022-12-09T03:49:28.419Z,20.70
2022-12-09T03:52:01.808Z,21.17
2022-12-09T03:54:34.741Z,21.15
2022-12-09T03:57:03.571Z,21.50
2022-12-09T03:59:35.871Z,19.85
2022-12-09T04:02:06.848Z,20.77
2022-12-09T04:04:35.712Z,20.33
2022-12-09T04:07:05.143Z,22.33
2022-12-09T04:09:33.239Z,22.13
2022-12-09T04:12:01.126Z,22.40
2022-12-09T04:14:28.911Z,22.77
2022-12-09T04:16:56.936Z,23.65
2022-12-09T04:19:25.346Z,24.73
2022-12-09T04:21:53.260Z,23.40
2022-12-09T04:24:23.210Z,25.08
2022-12-09T04:26:50.954Z,24.95
2022-12-09T04:29:18.964Z,25.20
2022-12-09T04:31:47.172Z,24.75
2022-12-09T04:34:15.040Z,24.58
2022-12-09T04:36:42.917Z,24.95
2022-12-09T04:39:11.347Z,24.77
2022-12-09T04:41:40.845Z,23.80
2022-12-09T04:44:08.652Z,22.92
2022-12-09T04:46:36.682Z,22.55
2022-12-09T04:49:05.309Z,21.95
2022-12-09T04:51:39.648Z,24.02
2022-12-09T04:54:08.795Z,22.25
2022-12-09T04:56:37.493Z,24.85
2022-12-09T04:59:07.319Z,22.55
2022-12-09T05:01:36.424Z,22.85
2022-12-09T05:04:06.030Z,23.65
2022-12-09T05:06:34.700Z,23.60
2022-12-09T05:09:02.798Z,23.58
2022-12-09T05:11:31.231Z,22.80
2022-12-09T05:13:59.287Z,22.63
2022-12-09T05:16:28.966Z,24.23
2022-12-09T05:18:57.169Z,23.63
2022-12-09T05:21:25.290Z,23.25
2022-12-09T05:23:53.622Z,22.60
2022-12-09T05:26:24.249Z,22.83
2022-12-09T05:28:52.453Z,21.58
2022-12-09T05:31:22.887Z,22.98
2022-12-09T05:33:53.352Z,23.20
2022-12-09T05:36:25.535Z,23.15
2022-12-09T05:38:53.997Z,22.25
2022-12-09T05:41:22.958Z,23.73
2022-12-09T05:43:51.210Z,23.42
2022-12-09T05:46:19.966Z,23.20
2022-12-09T05:48:48.353Z,24.67
2022-12-09T05:51:23.827Z,23.48
2022-12-09T05:53:51.833Z,23.27
2022-12-09T05:56:21.419Z,23.70
2022-12-09T05:58:49.801Z,23.15
2022-12-09T06:01:19.277Z,22.27
2022-12-09T06:03:48.498Z,23.50
2022-12-09T06:06:21.570Z,23.15
2022-12-09T06:08:50.032Z,23.38
2022-12-09T06:11:20.824Z,24.33
2022-12-09T06:13:50.548Z,22.08
2022-12-09T06:16:20.914Z,22.20
2022-12-09T06:18:50.587Z,24.05
2022-12-09T06:21:21.415Z,22.55
2022-12-09T06:23:51.033Z,22.73
2022-12-09T06:26:21.542Z,23.83
2022-12-09T06:28:49.680Z,23.70
2022-12-09T06:31:18.320Z,24.08
2022-12-09T06:33:54.930Z,25.33
2022-12-09T06:36:26.096Z,24.35
2022-12-09T06:38:54.616Z,26.23
2022-12-09T06:41:23.157Z,29.92
2022-12-09T06:43:51.509Z,27.42
2022-12-09T06:46:23.354Z,26.75
2022-12-09T06:48:52.409Z,25.85
2022-12-09T06:51:22.202Z,26.00
2022-12-09T06:53:51.606Z,26.20
2022-12-09T06:56:20.244Z,27.50
2022-12-09T06:58:48.480Z,26.65
2022-12-09T07:01:18.569Z,26.45
2022-12-09T07:03:51.271Z,26.38
2022-12-09T07:06:26.094Z,29.25
2022-12-09T07:08:56.047Z,31.13
2022-12-09T07:11:25.034Z,29.10
2022-12-09T07:13:53.532Z,27.95
2022-12-09T07:16:21.953Z,30.13
2022-12-09T07:18:50.387Z,29.15
2022-12-09T07:21:20.301Z,28.67
2022-12-09T07:23:49.354Z,29.08
2022-12-09T07:26:19.283Z,29.52
2022-12-09T07:28:48.816Z,28.58
2022-12-09T07:31:21.408Z,33.85
2022-12-09T07:33:50.369Z,30.55
2022-12-09T07:36:21.213Z,30.45
2022-12-09T07:38:49.654Z,30.45
2022-12-09T07:41:19.499Z,31.33
2022-12-09T07:43:48.924Z,30.80
2022-12-09T07:46:19.433Z,29.90
2022-12-09T07:48:48.571Z,31.83
2022-12-09T07:51:17.675Z,30.23
2022-12-09T07:53:46.181Z,29.90
2022-12-09T07:56:16.477Z,31.38
2022-12-09T07:58:48.765Z,31.05
2022-12-09T08:03:46.464Z,29.42
2022-12-09T08:06:16.101Z,30.73
2022-12-09T08:08:45.330Z,32.20
2022-12-09T08:11:15.493Z,32.60
2022-12-09T08:13:44.568Z,32.85
2022-12-09T08:16:16.813Z,32.08
2022-12-09T08:18:45.607Z,32.75
2022-12-09T08:21:16.714Z,31.35
2022-12-09T08:23:45.683Z,31.70
2022-12-09T08:26:15.243Z,32.83
2022-12-09T08:28:43.591Z,32.22
2022-12-09T08:31:15.592Z,32.53
2022-12-09T08:36:14.484Z,30.63
2022-12-09T08:38:43.462Z,31.02
2022-12-09T08:41:14.176Z,31.05
2022-12-09T08:43:43.038Z,32.22
2022-12-09T08:46:11.251Z,30.15
2022-12-09T08:48:42.631Z,30.00
2022-12-09T08:51:13.104Z,30.08
2022-12-09T08:53:42.127Z,31.20
2022-12-09T08:56:12.915Z,29.45
2022-12-09T08:58:41.420Z,29.65
2022-12-09T09:01:15.718Z,30.05
2022-12-09T09:03:45.996Z,28.70
2022-12-09T09:06:15.378Z,30.83
2022-12-09T09:08:44.962Z,31.40
2022-12-09T09:11:14.573Z,29.85
2022-12-09T09:13:45.064Z,30.92
2022-12-09T09:16:15.767Z,30.25
2022-12-09T09:18:45.766Z,29.48
2022-12-09T09:21:15.527Z,28.17
2022-12-09T09:23:44.550Z,31.25
2022-12-09T09:26:13.787Z,28.95
2022-12-09T09:28:42.024Z,29.80
2022-12-09T09:31:13.506Z,29.75
2022-12-09T09:33:42.158Z,29.47
2022-12-09T09:36:15.764Z,29.05
2022-12-09T09:38:43.979Z,29.92
2022-12-09T09:41:24.700Z,28.77
2022-12-09T09:43:53.825Z,30.13
2022-12-09T09:46:30.972Z,31.42
2022-12-09T09:49:00.172Z,30.38
2022-12-09T09:51:31.102Z,31.65
2022-12-09T09:54:05.048Z,31.25
2022-12-09T09:56:41.086Z,30.08
2022-12-09T09:59:22.242Z,28.38
2022-12-09T10:02:00.340Z,31.50
2022-12-09T10:04:39.676Z,29.88
2022-12-09T10:07:17.987Z,29.83
2022-12-09T10:09:53.162Z,32.47
2022-12-09T10:12:29.363Z,31.45
2022-12-09T10:15:00.994Z,30.30
2022-12-09T10:17:32.952Z,32.05
2022-12-09T10:22:44.005Z,30.95
2022-12-09T10:25:19.606Z,32.47
2022-12-09T10:27:53.303Z,30.90
2022-12-09T10:30:23.103Z,33.40
2022-12-09T10:32:51.111Z,32.13
2022-12-09T10:35:21.747Z,30.45
2022-12-09T10:37:53.509Z,32.95
2022-12-09T10:40:25.813Z,31.15
2022-12-09T10:43:28.082Z,30.63
2022-12-09T10:48:54.075Z,29.05
2022-12-09T10:51:25.345Z,31.08
2022-12-09T10:53:57.756Z,31.23
2022-12-09T10:59:11.445Z,29.45
2022-12-09T11:01:51.776Z,30.38
2022-12-09T11:04:25.168Z,29.98
2022-12-09T11:06:59.367Z,30.58
2022-12-09T11:09:32.123Z,29.77
2022-12-09T11:12:01.186Z,29.67
2022-12-09T11:14:34.896Z,31.27
2022-12-09T11:17:14.615Z,31.38
2022-12-09T11:19:43.806Z,32.90
2022-12-09T11:22:33.725Z,31.80
2022-12-09T11:25:16.784Z,33.28
2022-12-09T11:27:53.001Z,32.22
2022-12-09T11:30:24.110Z,33.47
2022-12-09T11:33:03.355Z,32.92
2022-12-09T11:35:35.097Z,31.48
2022-12-09T11:38:16.705Z,28.83
2022-12-09T11:41:00.713Z,29.88
2022-12-09T11:43:50.666Z,30.00
2022-12-09T11:46:23.501Z,29.27
2022-12-09T11:48:57.116Z,29.05
2022-12-09T11:51:28.118Z,30.10
2022-12-09T11:54:03.710Z,29.63
2022-12-09T11:56:34.315Z,29.08
2022-12-09T11:59:06.719Z,28.95
2022-12-09T12:01:47.606Z,28.40
2022-12-09T12:04:18.908Z,29.83
2022-12-09T12:06:49.689Z,30.98
2022-12-09T12:09:22.513Z,30.77
2022-12-09T12:12:03.584Z,29.60
2022-12-09T12:14:32.417Z,30.75
2022-12-09T12:17:07.834Z,30.90
2022-12-09T12:19:38.619Z,31.73
2022-12-09T12:22:30.027Z,32.20
2022-12-09T12:25:12.520Z,31.13
2022-12-09T12:28:06.564Z,33.50
2022-12-09T12:30:42.105Z,31.02
2022-12-09T12:36:28.432Z,31.35
2022-12-09T12:39:05.881Z,32.67
2022-12-09T12:41:39.105Z,32.08
2022-12-09T12:44:41.684Z,31.25
2022-12-09T12:50:03.325Z,31.38
2022-12-09T12:52:56.624Z,29.48
2022-12-09T12:55:39.852Z,30.55
2022-12-09T12:58:15.359Z,31.67
2022-12-09T13:01:00.569Z,31.80
2022-12-09T13:03:36.851Z,30.58
2022-12-09T13:06:05.147Z,30.23
2022-12-09T13:08:39.615Z,30.95
2022-12-09T13:11:13.147Z,30.65
2022-12-09T13:13:47.827Z,31.67
2022-12-09T13:16:22.833Z,31.75
2022-12-09T13:18:51.036Z,30.58
2022-12-09T13:21:19.661Z,30.48
2022-12-09T13:24:01.230Z,29.73
2022-12-09T13:26:42.828Z,31.05
2022-12-09T13:29:25.911Z,31.95
2022-12-09T13:32:02.251Z,31.27
2022-12-09T13:34:38.204Z,29.63
2022-12-09T13:37:06.269Z,30.88
2022-12-09T13:39:58.289Z,29.83
2022-12-09T13:42:56.613Z,31.20
2022-12-09T13:45:35.839Z,30.40
2022-12-09T13:48:28.519Z,29.77
2022-12-09T13:51:00.027Z,28.40
2022-12-09T13:53:32.641Z,30.60
2022-12-09T13:56:03.612Z,30.13
2022-12-09T13:59:17.017Z,29.35
2022-12-09T14:01:49.071Z,30.77
2022-12-09T14:06:56.838Z,29.38
2022-12-09T14:09:33.012Z,29.98
2022-12-09T14:12:02.516Z,30.52
2022-12-09T14:14:54.643Z,31.00
2022-12-09T14:17:59.942Z,31.83
2022-12-09T14:20:40.635Z,30.17
2022-12-09T14:23:19.454Z,30.80
2022-12-09T14:26:00.846Z,30.70
2022-12-09T14:28:42.617Z,31.13
2022-12-09T14:31:10.491Z,31.38
2022-12-09T14:33:43.451Z,32.05
2022-12-09T14:36:25.007Z,31.33
2022-12-09T14:39:22.999Z,31.48
2022-12-09T14:41:55.023Z,30.75
2022-12-09T14:44:31.890Z,31.17
2022-12-09T14:47:15.450Z,29.77
2022-12-09T14:49:49.139Z,27.77
2022-12-09T14:52:26.114Z,29.50
2022-12-09T14:54:57.843Z,28.00
2022-12-09T14:57:28.425Z,26.98
2022-12-09T14:59:58.359Z,28.40
2022-12-09T15:02:29.775Z,27.88
2022-12-09T15:04:59.929Z,31.88
2022-12-09T15:07:31.056Z,28.90
2022-12-09T15:10:00.854Z,27.70
2022-12-09T15:12:38.106Z,27.80
2022-12-09T15:15:08.343Z,27.15
2022-12-09T15:17:42.089Z,29.05
2022-12-09T15:20:25.011Z,28.42
2022-12-09T15:22:59.187Z,27.02
2022-12-09T15:25:28.032Z,26.25
2022-12-09T15:27:57.579Z,26.25
2022-12-09T15:30:31.243Z,28.90
2022-12-09T15:32:59.102Z,28.05
2022-12-09T15:35:34.553Z,29.02
2022-12-09T15:38:08.329Z,27.80
2022-12-09T15:40:38.915Z,27.52
2022-12-09T15:43:11.971Z,26.60
2022-12-09T15:45:45.085Z,28.13
2022-12-09T15:48:16.886Z,27.45
2022-12-09T15:50:50.797Z,27.70
2022-12-09T15:53:24.650Z,30.50
2022-12-09T15:55:57.868Z,29.05
2022-12-09T15:58:30.256Z,27.45
2022-12-09T16:00:58.805Z,27.23
2022-12-09T16:03:29.690Z,29.58
2022-12-09T16:06:00.787Z,28.38
2022-12-09T16:08:36.691Z,29.80
2022-12-09T16:11:05.026Z,33.83
2022-12-09T16:13:33.254Z,30.58
2022-12-09T16:16:03.257Z,31.02
2022-12-09T16:18:49.700Z,29.80
2022-12-09T16:21:27.982Z,30.27
2022-12-09T16:24:07.879Z,30.27
2022-12-09T16:26:38.823Z,27.90
2022-12-09T16:29:09.078Z,30.52
2022-12-09T16:31:36.880Z,28.70
2022-12-09T16:34:04.943Z,28.88
2022-12-09T16:36:33.392Z,28.13
2022-12-09T16:39:35.757Z,28.67
2022-12-09T16:42:03.841Z,28.48
2022-12-09T16:44:38.341Z,27.42
2022-12-09T16:47:14.836Z,27.27
2022-12-09T16:49:45.463Z,27.33
2022-12-09T16:52:14.952Z,27.17
2022-12-09T16:54:46.670Z,30.05
2022-12-09T16:57:16.127Z,30.85
2022-12-09T16:59:44.730Z,30.00
2022-12-09T17:02:19.744Z,30.83
2022-12-09T17:04:48.644Z,28.40
2022-12-09T17:07:16.395Z,31.27
2022-12-09T17:09:45.518Z,30.80
2022-12-09T17:12:13.408Z,28.33
2022-12-09T17:14:41.367Z,28.88
2022-12-09T17:17:09.191Z,27.33
2022-12-09T17:19:36.997Z,28.55
2022-12-09T17:22:04.855Z,28.48
2022-12-09T17:24:32.699Z,28.80
2022-12-09T17:27:01.824Z,29.30
2022-12-09T17:29:29.611Z,28.70
2022-12-09T17:31:57.362Z,28.20
2022-12-09T17:34:25.147Z,30.52
2022-12-09T17:36:52.984Z,31.27
2022-12-09T17:39:20.746Z,30.27
2022-12-09T17:41:50.229Z,31.55
2022-12-09T17:44:21.194Z,32.95
2022-12-09T17:46:49.196Z,32.92
2022-12-09T17:49:17.415Z,30.73
2022-12-09T17:51:45.262Z,29.77
2022-12-09T17:54:13.172Z,30.23
2022-12-09T17:56:41.009Z,29.70
2022-12-09T17:59:12.252Z,28.88
2022-12-09T18:01:43.905Z,29.30
2022-12-09T18:04:11.837Z,28.50
2022-12-09T18:06:41.444Z,29.40
2022-12-09T18:09:11.664Z,27.60
2022-12-09T18:11:40.361Z,28.80
2022-12-09T18:14:09.790Z,29.00
2022-12-09T18:16:38.160Z,29.88
2022-12-09T18:19:11.133Z,29.33
2022-12-09T18:21:38.996Z,29.42
2022-12-09T18:24:07.291Z,29.13
2022-12-09T18:26:41.143Z,29.27
2022-12-09T18:29:10.144Z,26.25
2022-12-09T18:31:38.208Z,27.67
2022-12-09T18:34:08.187Z,28.63
2022-12-09T18:36:35.949Z,28.73
2022-12-09T18:39:04.494Z,26.25
2022-12-09T18:41:33.186Z,27.90
2022-12-09T18:44:03.477Z,29.55
2022-12-09T18:46:34.030Z,28.27
2022-12-09T18:49:04.840Z,27.27
2022-12-09T18:51:34.808Z,25.17
2022-12-09T18:54:04.968Z,26.40
2022-12-09T18:56:33.210Z,27.45
2022-12-09T18:59:09.523Z,26.60
2022-12-09T19:01:40.682Z,27.60
2022-12-09T19:04:12.645Z,27.33
2022-12-09T19:06:43.434Z,28.38
2022-12-09T19:09:13.747Z,27.38
2022-12-09T19:11:42.729Z,27.73
2022-12-09T19:14:11.183Z,26.52
2022-12-09T19:16:39.619Z,28.15
2022-12-09T19:19:10.484Z,28.48
2022-12-09T19:21:39.409Z,29.52
2022-12-09T19:24:13.855Z,29.23
2022-12-09T19:26:42.676Z,28.55
2022-12-09T19:29:11.456Z,29.35
2022-12-09T19:31:42.172Z,38.85
2022-12-09T19:34:13.671Z,30.85
2022-12-09T19:36:41.417Z,31.98
2022-12-09T19:39:12.719Z,29.90
2022-12-09T19:41:41.447Z,28.50
2022-12-09T19:44:11.214Z,30.77
2022-12-09T19:46:39.479Z,30.42
2022-12-09T19:49:08.190Z,30.58
2022-12-09T19:51:36.309Z,34.38
2022-12-09T19:54:04.637Z,33.15
2022-12-09T19:56:34.231Z,34.80
2022-12-09T19:59:02.045Z,33.58
2022-12-09T20:01:31.767Z,33.45
2022-12-09T20:04:18.989Z,32.97
2022-12-09T20:06:51.827Z,32.40
2022-12-09T20:09:24.387Z,31.90
2022-12-09T20:11:54.158Z,32.65
2022-12-09T20:14:22.128Z,33.38
2022-12-09T20:16:49.951Z,32.17
2022-12-09T20:19:19.745Z,34.05
2022-12-09T20:21:47.668Z,31.95
2022-12-09T20:24:15.465Z,33.97
2022-12-09T20:26:44.011Z,34.50
2022-12-09T20:29:13.490Z,33.42
2022-12-09T20:31:42.807Z,31.33
2022-12-09T20:34:14.491Z,32.92
2022-12-09T20:36:44.697Z,32.90
2022-12-09T20:39:15.271Z,32.17
2022-12-09T20:41:43.752Z,32.65
2022-12-09T20:44:14.166Z,32.20
2022-12-09T20:46:46.302Z,33.13
2022-12-09T20:49:14.408Z,32.20
2022-12-09T20:51:44.037Z,30.90
2022-12-09T20:54:12.485Z,33.80
2022-12-09T20:56:40.301Z,33.35
2022-12-09T20:59:09.989Z,33.10
2022-12-09T21:01:39.747Z,31.98
2022-12-09T21:04:08.904Z,32.50
2022-12-09T21:06:39.174Z,53.30
2022-12-09T21:09:08.648Z,33.97
2022-12-09T21:11:37.426Z,32.22
2022-12-09T21:14:06.834Z,30.92
2022-12-09T21:16:38.576Z,31.65
2022-12-09T21:19:11.094Z,30.00
2022-12-09T21:21:41.301Z,31.55
2022-12-09T21:24:11.638Z,32.25
2022-12-09T21:26:39.399Z,31.02
2022-12-09T21:29:08.284Z,32.85
2022-12-09T21:31:38.856Z,30.92
2022-12-09T21:34:09.351Z,30.92
2022-12-09T21:36:42.801Z,31.63
2022-12-09T21:39:13.153Z,33.47
2022-12-09T21:41:41.678Z,31.85
2022-12-09T21:44:11.039Z,30.13
2022-12-09T21:46:38.879Z,31.73
2022-12-09T21:49:08.869Z,30.73
2022-12-09T21:51:36.993Z,32.40
2022-12-09T21:54:05.163Z,31.42
2022-12-09T21:56:35.800Z,32.47
2022-12-09T21:59:06.319Z,31.67
2022-12-09T22:01:36.170Z,33.85
2022-12-09T22:04:07.948Z,30.55
2022-12-09T22:06:37.709Z,31.20
2022-12-09T22:09:07.947Z,34.45
2022-12-09T22:11:37.492Z,33.45
2022-12-09T22:14:07.421Z,32.97
2022-12-09T22:16:37.412Z,33.75
2022-12-09T22:19:08.135Z,33.45
2022-12-09T22:21:37.793Z,34.38
2022-12-09T22:24:07.834Z,34.33
2022-12-09T22:26:36.384Z,33.85
2022-12-09T22:29:06.081Z,32.35
2022-12-09T22:31:37.217Z,31.60
2022-12-09T22:34:08.476Z,33.33
2022-12-09T22:36:37.909Z,34.58
2022-12-09T22:39:06.842Z,34.55
2022-12-09T22:41:35.392Z,34.67
2022-12-09T22:44:03.987Z,34.15
2022-12-09T22:46:34.729Z,34.63
2022-12-09T22:49:05.682Z,33.53
2022-12-09T22:51:36.413Z,32.90
2022-12-09T22:54:08.003Z,35.25
2022-12-09T22:56:39.402Z,32.30
2022-12-09T22:59:07.495Z,32.95
2022-12-09T23:01:37.410Z,44.58
2022-12-09T23:04:06.843Z,39.40
2022-12-09T23:06:36.408Z,35.90
2022-12-09T23:09:06.820Z,34.67
2022-12-09T23:11:35.320Z,34.58
2022-12-09T23:14:03.113Z,33.20
2022-12-09T23:16:31.712Z,32.97
2022-12-09T23:19:00.420Z,35.15
2022-12-09T23:21:30.739Z,34.08
2022-12-09T23:24:01.318Z,37.53
2022-12-09T23:26:32.404Z,35.72
2022-12-09T23:29:02.894Z,35.80
2022-12-09T23:31:33.413Z,35.30
2022-12-09T23:34:02.738Z,33.85
2022-12-09T23:36:33.605Z,36.72
2022-12-09T23:39:02.062Z,36.53
2022-12-09T23:41:31.430Z,37.17
2022-12-09T23:43:59.423Z,36.58
2022-12-09T23:46:29.480Z,37.63
2022-12-09T23:48:57.751Z,36.65
2022-12-09T23:51:28.853Z,36.10
2022-12-09T23:53:58.906Z,38.73
2022-12-09T23:56:28.593Z,37.22
2022-12-09T23:59:00.609Z,36.42
